createdAt,value
2018-04-29T00:00:01.782Z,16.07
2018-04-29T00:01:01.788Z,16.16
2018-04-29T00:02:01.789Z,16.18
2018-04-29T00:03:01.785Z,16.22
2018-04-29T00:04:01.788Z,16.16
2018-04-29T00:05:01.794Z,16.18
2018-04-29T00:06:01.800Z,16.15
2018-04-29T00:07:01.799Z,16.18
2018-04-29T00:08:01.811Z,16.20
2018-04-29T00:09:01.806Z,16.14
2018-04-29T00:10:01.816Z,16.00
2018-04-29T00:11:01.810Z,16.04
2018-04-29T00:12:01.823Z,16.04
2018-04-29T00:13:01.820Z,16.03
2018-04-29T00:14:01.856Z,16.03
2018-04-29T00:15:01.831Z,16.06
2018-04-29T00:16:01.834Z,16.01
2018-04-29T00:17:01.834Z,16.07
2018-04-29T00:18:02.483Z,16.06
2018-04-29T00:19:01.841Z,16.07
2018-04-29T00:20:01.857Z,16.04
2018-04-29T00:21:01.853Z,16.06
2018-04-29T00:22:01.852Z,16.03
2018-04-29T00:23:01.868Z,16.00
2018-04-29T00:24:01.867Z,16.03
2018-04-29T00:25:01.862Z,15.96
2018-04-29T00:26:01.875Z,15.97
2018-04-29T00:27:01.879Z,15.97
2018-04-29T00:28:01.879Z,15.86
2018-04-29T00:29:01.880Z,15.88
2018-04-29T00:30:01.890Z,15.85
2018-04-29T00:31:02.010Z,15.88
2018-04-29T00:32:01.898Z,15.79
2018-04-29T00:33:01.899Z,15.84
2018-04-29T00:34:01.904Z,15.76
2018-04-29T00:35:01.914Z,15.72
2018-04-29T00:36:01.946Z,15.72
2018-04-29T00:37:01.945Z,15.82
2018-04-29T00:38:01.922Z,15.72
2018-04-29T00:39:01.973Z,15.70
2018-04-29T00:40:01.927Z,15.68
2018-04-29T00:41:01.979Z,15.72
2018-04-29T00:42:01.928Z,15.60
2018-04-29T00:43:01.937Z,15.63
2018-04-29T00:44:01.947Z,15.60
2018-04-29T00:45:01.947Z,15.66
2018-04-29T00:46:01.941Z,15.61
2018-04-29T00:47:01.947Z,15.59
2018-04-29T00:48:01.950Z,15.63
2018-04-29T00:49:01.961Z,15.59
2018-04-29T00:50:01.970Z,15.72
2018-04-29T00:51:01.963Z,15.72
2018-04-29T00:52:01.977Z,15.74
2018-04-29T00:53:01.978Z,15.68
2018-04-29T00:54:01.982Z,15.66
2018-04-29T00:55:01.984Z,15.70
2018-04-29T00:56:01.984Z,15.66
2018-04-29T00:57:01.986Z,15.63
2018-04-29T00:58:01.992Z,15.59
2018-04-29T00:59:02.028Z,15.61
2018-04-29T01:00:02.002Z,15.63
2018-04-29T01:01:01.998Z,15.57
2018-04-29T01:02:02.006Z,15.45
2018-04-29T01:03:02.015Z,15.56
2018-04-29T01:04:02.016Z,15.52
2018-04-29T01:05:02.020Z,15.57
2018-04-29T01:06:02.030Z,15.45
2018-04-29T01:07:02.016Z,15.54
2018-04-29T01:08:02.041Z,15.43
2018-04-29T01:09:02.047Z,15.45
2018-04-29T01:10:02.034Z,15.43
2018-04-29T01:11:02.046Z,15.42
2018-04-29T01:12:02.051Z,15.42
2018-04-29T01:13:02.049Z,15.33
2018-04-29T01:14:02.049Z,15.33
2018-04-29T01:15:02.051Z,15.21
2018-04-29T01:16:02.057Z,15.24
2018-04-29T01:17:02.055Z,15.12
2018-04-29T01:18:02.067Z,15.08
2018-04-29T01:19:02.061Z,15.08
2018-04-29T01:20:02.070Z,15.06
2018-04-29T01:21:02.069Z,14.99
2018-04-29T01:22:02.074Z,14.94
2018-04-29T01:23:02.091Z,14.93
2018-04-29T01:24:02.079Z,14.90
2018-04-29T01:25:02.099Z,14.86
2018-04-29T01:26:02.097Z,14.81
2018-04-29T01:27:02.091Z,14.75
2018-04-29T01:28:02.096Z,14.74
2018-04-29T01:29:02.094Z,14.75
2018-04-29T01:30:02.098Z,14.68
2018-04-29T01:31:02.105Z,14.64
2018-04-29T01:32:02.126Z,14.71
2018-04-29T01:33:02.122Z,14.75
2018-04-29T01:34:02.410Z,14.72
2018-04-29T01:35:02.965Z,14.72
2018-04-29T01:36:03.800Z,14.68
2018-04-29T01:37:02.131Z,14.62
2018-04-29T01:38:02.476Z,14.60
2018-04-29T01:39:02.132Z,14.54
2018-04-29T01:40:02.149Z,14.52
2018-04-29T01:41:02.135Z,14.60
2018-04-29T01:42:02.157Z,14.47
2018-04-29T01:43:02.138Z,14.42
2018-04-29T01:44:02.145Z,14.44
2018-04-29T01:45:02.146Z,14.44
2018-04-29T01:46:02.153Z,14.46
2018-04-29T01:47:02.159Z,14.52
2018-04-29T01:48:02.161Z,14.38
2018-04-29T01:49:02.161Z,14.38
2018-04-29T01:50:02.176Z,14.44
2018-04-29T01:51:02.168Z,14.49
2018-04-29T01:52:02.182Z,14.53
2018-04-29T01:53:02.187Z,14.49
2018-04-29T01:54:02.189Z,14.53
2018-04-29T01:55:02.200Z,14.60
2018-04-29T01:56:02.311Z,14.49
2018-04-29T01:57:02.204Z,14.52
2018-04-29T01:58:02.206Z,14.46
2018-04-29T01:59:02.212Z,14.47
2018-04-29T02:00:02.220Z,14.53
2018-04-29T02:01:03.039Z,14.46
2018-04-29T02:02:02.222Z,14.39
2018-04-29T02:03:02.215Z,14.39
2018-04-29T02:04:02.241Z,14.49
2018-04-29T02:05:02.242Z,14.38
2018-04-29T02:06:02.230Z,14.39
2018-04-29T02:07:02.236Z,14.37
2018-04-29T02:08:02.228Z,14.29
2018-04-29T02:09:02.238Z,14.28
2018-04-29T02:10:02.244Z,14.28
2018-04-29T02:11:02.241Z,14.20
2018-04-29T02:12:02.240Z,14.25
2018-04-29T02:13:02.235Z,14.21
2018-04-29T02:14:02.243Z,14.24
2018-04-29T02:15:02.255Z,14.28
2018-04-29T02:16:02.249Z,14.21
2018-04-29T02:17:02.264Z,14.28
2018-04-29T02:18:02.256Z,14.32
2018-04-29T02:19:02.260Z,14.24
2018-04-29T02:20:02.282Z,14.24
2018-04-29T02:21:02.270Z,14.07
2018-04-29T02:22:02.300Z,14.10
2018-04-29T02:23:02.291Z,14.12
2018-04-29T02:24:02.301Z,14.04
2018-04-29T02:25:02.295Z,14.02
2018-04-29T02:26:02.294Z,14.13
2018-04-29T02:27:02.288Z,14.10
2018-04-29T02:28:02.305Z,13.99
2018-04-29T02:29:02.291Z,13.98
2018-04-29T02:30:02.312Z,14.10
2018-04-29T02:31:02.305Z,14.12
2018-04-29T02:32:02.301Z,14.07
2018-04-29T02:33:02.326Z,14.04
2018-04-29T02:34:02.307Z,14.02
2018-04-29T02:35:02.320Z,14.07
2018-04-29T02:36:02.312Z,13.99
2018-04-29T02:37:02.325Z,14.01
2018-04-29T02:38:02.314Z,13.87
2018-04-29T02:39:02.323Z,13.81
2018-04-29T02:40:02.329Z,13.71
2018-04-29T02:41:02.331Z,13.65
2018-04-29T02:42:02.334Z,13.67
2018-04-29T02:43:02.326Z,13.69
2018-04-29T02:44:02.342Z,13.59
2018-04-29T02:45:02.332Z,13.56
2018-04-29T02:46:02.356Z,13.58
2018-04-29T02:47:02.401Z,13.55
2018-04-29T02:48:02.356Z,13.44
2018-04-29T02:49:02.360Z,13.44
2018-04-29T02:50:02.363Z,13.38
2018-04-29T02:51:02.373Z,13.44
2018-04-29T02:52:02.395Z,13.46
2018-04-29T02:53:02.368Z,13.52
2018-04-29T02:54:02.394Z,13.41
2018-04-29T02:55:02.391Z,13.38
2018-04-29T02:56:02.381Z,13.38
2018-04-29T02:57:02.479Z,13.46
2018-04-29T02:58:02.379Z,13.44
2018-04-29T02:59:02.376Z,13.43
2018-04-29T03:00:02.391Z,13.43
2018-04-29T03:01:02.390Z,13.44
2018-04-29T03:02:02.390Z,13.37
2018-04-29T03:03:02.395Z,13.41
2018-04-29T03:04:02.405Z,13.32
2018-04-29T03:05:02.419Z,13.38
2018-04-29T03:06:02.395Z,13.36
2018-04-29T03:07:02.407Z,13.27
2018-04-29T03:08:02.413Z,13.32
2018-04-29T03:09:02.401Z,13.29
2018-04-29T03:10:02.448Z,13.29
2018-04-29T03:11:02.414Z,13.27
2018-04-29T03:12:02.409Z,13.11
2018-04-29T03:13:02.507Z,13.06
2018-04-29T03:14:02.437Z,13.12
2018-04-29T03:15:02.434Z,13.09
2018-04-29T03:16:02.459Z,13.06
2018-04-29T03:17:02.422Z,13.12
2018-04-29T03:18:02.426Z,13.06
2018-04-29T03:19:02.437Z,13.09
2018-04-29T03:20:02.451Z,13.11
2018-04-29T03:21:02.440Z,13.11
2018-04-29T03:22:02.449Z,13.02
2018-04-29T03:23:02.452Z,13.06
2018-04-29T03:24:02.444Z,13.09
2018-04-29T03:25:02.452Z,13.09
2018-04-29T03:26:02.518Z,13.07
2018-04-29T03:27:02.473Z,13.12
2018-04-29T03:28:02.463Z,13.07
2018-04-29T03:29:02.458Z,13.09
2018-04-29T03:30:02.460Z,13.02
2018-04-29T03:31:02.467Z,13.09
2018-04-29T03:32:02.482Z,13.06
2018-04-29T03:33:02.471Z,13.12
2018-04-29T03:34:02.483Z,13.09
2018-04-29T03:35:02.491Z,13.04
2018-04-29T03:36:02.489Z,13.07
2018-04-29T03:37:02.490Z,13.02
2018-04-29T03:38:02.498Z,12.93
2018-04-29T03:39:02.500Z,12.89
2018-04-29T03:40:02.530Z,12.92
2018-04-29T03:41:02.506Z,12.89
2018-04-29T03:42:02.519Z,12.89
2018-04-29T03:43:02.496Z,12.93
2018-04-29T03:44:02.502Z,12.96
2018-04-29T03:45:02.506Z,12.95
2018-04-29T03:46:02.503Z,12.92
2018-04-29T03:47:02.503Z,12.88
2018-04-29T03:48:02.510Z,12.88
2018-04-29T03:49:02.504Z,12.85
2018-04-29T03:50:02.523Z,12.88
2018-04-29T03:51:02.516Z,12.92
2018-04-29T03:52:02.522Z,12.84
2018-04-29T03:53:02.522Z,12.87
2018-04-29T03:54:02.526Z,12.92
2018-04-29T03:55:02.542Z,12.84
2018-04-29T03:56:02.558Z,12.84
2018-04-29T03:57:02.536Z,12.84
2018-04-29T03:58:02.542Z,12.81
2018-04-29T03:59:02.561Z,12.82
2018-04-29T04:00:02.563Z,12.81
2018-04-29T04:01:02.558Z,12.85
2018-04-29T04:02:02.563Z,12.70
2018-04-29T04:03:02.567Z,12.85
2018-04-29T04:04:02.583Z,12.78
2018-04-29T04:05:02.550Z,12.81
2018-04-29T04:06:02.557Z,12.70
2018-04-29T04:07:02.552Z,12.67
2018-04-29T04:08:02.561Z,12.69
2018-04-29T04:09:02.563Z,12.85
2018-04-29T04:10:02.559Z,12.85
2018-04-29T04:11:02.567Z,12.85
2018-04-29T04:12:02.568Z,12.77
2018-04-29T04:13:02.570Z,12.85
2018-04-29T04:14:02.582Z,12.74
2018-04-29T04:15:02.580Z,12.87
2018-04-29T04:16:02.591Z,12.64
2018-04-29T04:17:02.597Z,12.87
2018-04-29T04:18:02.598Z,12.84
2018-04-29T04:19:02.599Z,12.96
2018-04-29T04:20:02.622Z,12.88
2018-04-29T04:21:02.600Z,12.89
2018-04-29T04:22:02.607Z,12.89
2018-04-29T04:23:02.622Z,12.89
2018-04-29T04:24:02.620Z,12.93
2018-04-29T04:25:02.627Z,12.95
2018-04-29T04:26:02.599Z,12.97
2018-04-29T04:27:02.603Z,12.88
2018-04-29T04:28:02.611Z,12.95
2018-04-29T04:29:02.654Z,12.95
2018-04-29T04:30:02.616Z,12.95
2018-04-29T04:31:02.620Z,12.97
2018-04-29T04:32:02.625Z,13.00
2018-04-29T04:33:02.618Z,13.06
2018-04-29T04:34:02.624Z,13.04
2018-04-29T04:35:02.629Z,13.12
2018-04-29T04:36:02.627Z,13.25
2018-04-29T04:37:02.842Z,13.25
2018-04-29T04:38:02.637Z,13.32
2018-04-29T04:39:02.651Z,13.30
2018-04-29T04:40:02.646Z,13.46
2018-04-29T04:41:02.646Z,13.46
2018-04-29T04:42:02.650Z,13.49
2018-04-29T04:43:02.673Z,13.54
2018-04-29T04:44:02.649Z,13.61
2018-04-29T04:45:02.668Z,13.65
2018-04-29T04:46:02.670Z,13.69
2018-04-29T04:47:02.673Z,13.81
2018-04-29T04:48:02.668Z,13.83
2018-04-29T04:49:02.713Z,13.84
2018-04-29T04:50:02.673Z,13.87
2018-04-29T04:51:02.687Z,13.96
2018-04-29T04:52:02.680Z,13.95
2018-04-29T04:53:02.679Z,14.01
2018-04-29T04:54:02.681Z,13.96
2018-04-29T04:55:02.686Z,13.96
2018-04-29T04:56:02.690Z,13.92
2018-04-29T04:57:02.688Z,13.99
2018-04-29T04:58:02.691Z,13.83
2018-04-29T04:59:02.693Z,13.94
2018-04-29T05:00:02.713Z,13.89
2018-04-29T05:01:02.702Z,13.84
2018-04-29T05:02:02.702Z,13.83
2018-04-29T05:03:02.700Z,13.91
2018-04-29T05:04:02.705Z,13.89
2018-04-29T05:05:02.717Z,13.84
2018-04-29T05:06:02.721Z,13.89
2018-04-29T05:07:02.720Z,13.89
2018-04-29T05:08:02.742Z,13.92
2018-04-29T05:09:02.730Z,13.94
2018-04-29T05:10:02.725Z,13.95
2018-04-29T05:11:02.728Z,13.84
2018-04-29T05:12:02.741Z,13.98
2018-04-29T05:13:02.739Z,14.01
2018-04-29T05:14:02.732Z,13.95
2018-04-29T05:15:02.737Z,13.98
2018-04-29T05:16:02.739Z,14.06
2018-04-29T05:17:02.751Z,14.09
2018-04-29T05:18:02.745Z,14.07
2018-04-29T05:19:02.755Z,14.07
2018-04-29T05:20:02.763Z,14.02
2018-04-29T05:21:02.759Z,13.95
2018-04-29T05:22:02.762Z,13.92
2018-04-29T05:23:02.759Z,13.92
2018-04-29T05:24:02.769Z,13.87
2018-04-29T05:25:02.771Z,13.80
2018-04-29T05:26:02.782Z,13.81
2018-04-29T05:27:02.771Z,13.73
2018-04-29T05:28:02.777Z,13.73
2018-04-29T05:29:02.787Z,13.70
2018-04-29T05:30:02.815Z,13.76
2018-04-29T05:31:02.793Z,13.76
2018-04-29T05:32:02.799Z,13.65
2018-04-29T05:33:02.810Z,13.80
2018-04-29T05:34:02.790Z,13.84
2018-04-29T05:35:02.801Z,14.01
2018-04-29T05:36:02.824Z,14.04
2018-04-29T05:37:02.807Z,14.06
2018-04-29T05:38:02.822Z,14.21
2018-04-29T05:39:02.837Z,14.29
2018-04-29T05:40:04.350Z,14.37
2018-04-29T05:41:04.304Z,14.42
2018-04-29T05:42:02.816Z,14.84
2018-04-29T05:43:02.827Z,15.97
2018-04-29T05:44:02.824Z,17.03
2018-04-29T05:45:02.849Z,18.06
2018-04-29T05:46:02.838Z,18.95
2018-04-29T05:47:02.846Z,19.79
2018-04-29T05:48:02.857Z,20.53
2018-04-29T05:49:02.851Z,21.13
2018-04-29T05:50:03.579Z,21.78
2018-04-29T05:51:02.866Z,22.39
2018-04-29T05:52:02.858Z,23.04
2018-04-29T05:53:02.863Z,23.31
2018-04-29T05:54:02.867Z,23.86
2018-04-29T05:55:02.881Z,24.23
2018-04-29T05:56:02.888Z,23.86
2018-04-29T05:57:02.889Z,23.17
2018-04-29T05:58:02.894Z,22.31
2018-04-29T05:59:02.906Z,21.59
2018-04-29T06:00:02.909Z,21.16
2018-04-29T06:01:02.938Z,20.77
2018-04-29T06:02:02.931Z,20.84
2018-04-29T06:03:02.930Z,22.17
2018-04-29T06:04:02.956Z,23.29
2018-04-29T06:05:02.949Z,24.26
2018-04-29T06:06:02.960Z,24.95
2018-04-29T06:07:02.980Z,25.56
2018-04-29T06:08:02.975Z,26.25
2018-04-29T06:09:02.995Z,26.72
2018-04-29T06:10:03.004Z,27.13
2018-04-29T06:11:03.009Z,27.29
2018-04-29T06:12:03.025Z,27.38
2018-04-29T06:13:03.027Z,27.19
2018-04-29T06:14:03.098Z,27.39
2018-04-29T06:15:03.049Z,27.11
2018-04-29T06:16:03.064Z,26.91
2018-04-29T06:17:03.069Z,25.54
2018-04-29T06:18:03.080Z,24.41
2018-04-29T06:19:04.088Z,24.68
2018-04-29T06:20:03.108Z,24.95
2018-04-29T06:21:03.137Z,25.31
2018-04-29T06:22:03.149Z,24.77
2018-04-29T06:23:03.150Z,23.85
2018-04-29T06:24:03.162Z,23.09
2018-04-29T06:25:03.173Z,22.39
2018-04-29T06:26:03.257Z,22.41
2018-04-29T06:27:03.197Z,22.68
2018-04-29T06:28:03.211Z,22.83
2018-04-29T06:29:03.227Z,23.32
2018-04-29T06:30:03.248Z,24.05
2018-04-29T06:31:03.243Z,24.71
2018-04-29T06:32:03.255Z,24.95
2018-04-29T06:33:03.261Z,25.07
2018-04-29T06:34:03.283Z,25.46
2018-04-29T06:35:03.283Z,25.79
2018-04-29T06:36:03.307Z,25.56
2018-04-29T06:37:03.312Z,24.54
2018-04-29T06:38:03.351Z,23.55
2018-04-29T06:39:03.351Z,22.84
2018-04-29T06:40:03.355Z,23.09
2018-04-29T06:41:03.384Z,23.52
2018-04-29T06:42:03.381Z,24.04
2018-04-29T06:43:03.407Z,24.26
2018-04-29T06:44:03.414Z,24.32
2018-04-29T06:45:03.413Z,24.45
2018-04-29T06:46:03.423Z,24.75
2018-04-29T06:47:03.444Z,24.26
2018-04-29T06:48:03.453Z,24.59
2018-04-29T06:49:03.483Z,24.88
2018-04-29T06:50:56.442Z,24.39
2018-04-29T06:51:56.408Z,24.77
2018-04-29T06:53:49.364Z,23.32
2018-04-29T06:54:49.511Z,23.50
2018-04-29T06:56:42.342Z,22.74
2018-04-29T06:57:42.324Z,22.96
2018-04-29T06:59:35.274Z,22.83
2018-04-29T07:00:35.285Z,22.29
2018-04-29T07:02:28.822Z,21.44
2018-04-29T07:03:28.253Z,21.16
2018-04-29T07:05:21.191Z,20.71
2018-04-29T07:06:21.201Z,20.61
2018-04-29T07:08:14.240Z,21.09
2018-04-29T07:09:14.153Z,21.04
2018-04-29T07:10:14.173Z,20.79
2018-04-29T07:11:14.183Z,20.61
2018-04-29T07:12:14.185Z,20.38
2018-04-29T07:13:14.202Z,20.18
2018-04-29T07:14:14.206Z,20.15
2018-04-29T07:15:14.233Z,20.21
2018-04-29T07:16:14.233Z,20.05
2018-04-29T07:17:14.248Z,21.56
2018-04-29T07:18:14.259Z,23.07
2018-04-29T07:19:14.382Z,24.26
2018-04-29T07:20:14.267Z,25.10
2018-04-29T07:21:14.295Z,25.94
2018-04-29T07:22:14.314Z,26.40
2018-04-29T07:23:14.323Z,25.67
2018-04-29T07:24:14.345Z,25.34
2018-04-29T07:25:14.347Z,25.83
2018-04-29T07:26:15.677Z,26.09
2018-04-29T07:27:14.403Z,26.59
2018-04-29T07:28:14.404Z,26.25
2018-04-29T07:29:14.389Z,26.01
2018-04-29T07:30:14.408Z,26.79
2018-04-29T07:31:14.442Z,26.22
2018-04-29T07:32:14.540Z,25.83
2018-04-29T07:33:14.487Z,25.56
2018-04-29T07:34:14.599Z,24.57
2018-04-29T07:36:07.456Z,23.11
2018-04-29T07:37:07.468Z,22.43
2018-04-29T07:39:00.405Z,21.51
2018-04-29T07:40:00.399Z,21.02
2018-04-29T07:41:53.470Z,20.71
2018-04-29T07:42:53.325Z,20.30
2018-04-29T07:44:46.281Z,20.13
2018-04-29T07:45:46.275Z,20.30
2018-04-29T07:47:39.620Z,20.74
2018-04-29T07:48:39.248Z,20.72
2018-04-29T07:50:32.189Z,20.41
2018-04-29T07:51:32.187Z,20.21
2018-04-29T07:53:25.186Z,19.91
2018-04-29T07:54:25.191Z,19.86
2018-04-29T07:56:18.094Z,19.55
2018-04-29T07:57:18.107Z,19.32
2018-04-29T07:59:11.206Z,19.31
2018-04-29T08:00:11.309Z,19.50
2018-04-29T08:02:04.115Z,19.68
2018-04-29T08:03:04.116Z,19.79
2018-04-29T08:10:16.226Z,19.18
2018-04-29T08:11:16.165Z,19.02
2018-04-29T08:12:16.410Z,18.99
2018-04-29T08:13:16.173Z,19.05
2018-04-29T08:14:16.179Z,18.98
2018-04-29T08:15:16.185Z,19.01
2018-04-29T08:16:16.313Z,18.97
2018-04-29T08:17:16.193Z,19.02
2018-04-29T08:19:09.222Z,18.92
2018-04-29T08:20:09.187Z,18.79
2018-04-29T08:22:04.611Z,18.64
2018-04-29T08:23:03.215Z,18.61
2018-04-29T08:24:55.947Z,18.67
2018-04-29T08:25:55.921Z,18.73
2018-04-29T08:27:48.871Z,18.62
2018-04-29T08:28:48.868Z,18.65
2018-04-29T08:30:41.892Z,18.43
2018-04-29T08:31:41.955Z,18.46
2018-04-29T08:33:34.764Z,18.42
2018-04-29T08:34:34.767Z,18.37
2018-04-29T08:36:27.847Z,18.39
2018-04-29T08:37:27.830Z,18.34
2018-04-29T08:38:27.857Z,18.28
2018-04-29T08:39:27.955Z,18.27
2018-04-29T08:40:27.847Z,18.29
2018-04-29T08:41:28.774Z,18.24
2018-04-29T08:42:27.884Z,18.25
2018-04-29T08:43:27.875Z,18.27
2018-04-29T08:44:27.881Z,18.36
2018-04-29T08:45:27.890Z,18.43
2018-04-29T08:46:27.898Z,18.42
2018-04-29T08:47:28.027Z,18.40
2018-04-29T08:48:27.893Z,18.40
2018-04-29T08:49:27.971Z,18.25
2018-04-29T08:50:27.908Z,18.24
2018-04-29T08:51:27.912Z,18.25
2018-04-29T08:52:27.944Z,18.21
2018-04-29T08:53:27.920Z,18.27
2018-04-29T08:54:27.928Z,18.43
2018-04-29T08:55:28.719Z,18.65
2018-04-29T08:56:27.937Z,19.39
2018-04-29T08:57:27.957Z,19.88
2018-04-29T08:58:27.958Z,20.46
2018-04-29T08:59:27.966Z,20.69
2018-04-29T09:00:27.979Z,20.46
2018-04-29T09:01:27.977Z,20.56
2018-04-29T09:02:27.983Z,20.39
2018-04-29T09:03:27.988Z,20.15
2018-04-29T09:04:28.002Z,19.91
2018-04-29T09:05:28.014Z,19.66
2018-04-29T09:06:28.723Z,19.53
2018-04-29T09:07:28.026Z,19.36
2018-04-29T09:08:28.034Z,19.14
2018-04-29T09:09:28.037Z,19.13
2018-04-29T09:10:28.048Z,19.15
2018-04-29T09:11:28.050Z,18.92
2018-04-29T09:12:28.092Z,19.05
2018-04-29T09:13:28.074Z,19.05
2018-04-29T09:14:28.073Z,19.02
2018-04-29T09:15:29.600Z,19.06
2018-04-29T09:16:28.085Z,19.02
2018-04-29T09:17:28.832Z,19.05
2018-04-29T09:18:28.100Z,19.02
2018-04-29T09:19:28.106Z,18.84
2018-04-29T09:20:28.116Z,18.65
2018-04-29T09:21:29.173Z,18.59
2018-04-29T09:23:21.090Z,18.62
2018-04-29T09:24:21.019Z,18.47
2018-04-29T09:26:13.966Z,18.47
2018-04-29T09:27:13.975Z,18.52
2018-04-29T09:29:06.963Z,18.49
2018-04-29T09:30:06.941Z,18.49
2018-04-29T09:31:06.946Z,18.49
2018-04-29T09:32:06.945Z,18.49
2018-04-29T09:33:06.956Z,18.46
2018-04-29T09:34:06.959Z,18.47
2018-04-29T09:35:06.971Z,18.44
2018-04-29T09:36:06.970Z,18.44
2018-04-29T09:37:59.962Z,18.44
2018-04-29T09:38:59.930Z,18.54
2018-04-29T09:40:52.988Z,18.55
2018-04-29T09:41:52.911Z,18.58
2018-04-29T09:43:45.847Z,18.67
2018-04-29T09:44:45.854Z,18.72
2018-04-29T09:46:38.850Z,18.59
2018-04-29T09:47:38.804Z,18.52
2018-04-29T09:49:31.768Z,18.55
2018-04-29T09:50:32.109Z,18.54
2018-04-29T09:52:24.775Z,18.52
2018-04-29T09:53:25.789Z,18.47
2018-04-29T09:55:17.740Z,18.52
2018-04-29T09:56:17.683Z,18.49
2018-04-29T09:58:10.657Z,18.54
2018-04-29T09:59:10.643Z,18.54
2018-04-29T10:01:03.655Z,17.99
2018-04-29T10:02:03.655Z,17.81
2018-04-29T10:03:03.629Z,17.73
2018-04-29T10:04:56.667Z,17.69
2018-04-29T10:05:56.870Z,17.76
2018-04-29T10:07:49.518Z,17.97
2018-04-29T10:08:49.577Z,18.13
2018-04-29T10:10:43.063Z,18.37
2018-04-29T10:11:42.473Z,18.44
2018-04-29T10:12:42.477Z,18.59
2018-04-29T10:13:42.478Z,18.70
2018-04-29T10:14:42.491Z,18.83
2018-04-29T10:15:42.489Z,18.92
2018-04-29T10:16:42.497Z,19.08
2018-04-29T10:17:42.508Z,19.02
2018-04-29T10:18:42.588Z,19.13
2018-04-29T10:19:42.506Z,19.17
2018-04-29T10:20:43.457Z,19.31
2018-04-29T10:21:42.524Z,19.39
2018-04-29T10:22:42.533Z,19.48
2018-04-29T10:23:42.535Z,19.57
2018-04-29T10:24:42.569Z,19.58
2018-04-29T10:25:42.551Z,19.66
2018-04-29T10:26:42.565Z,19.75
2018-04-29T10:27:42.567Z,19.73
2018-04-29T10:28:42.571Z,19.80
2018-04-29T10:29:42.591Z,19.90
2018-04-29T10:30:42.589Z,19.98
2018-04-29T10:32:35.601Z,19.86
2018-04-29T10:33:35.572Z,20.03
2018-04-29T10:35:28.534Z,20.16
2018-04-29T10:36:28.531Z,20.12
2018-04-29T10:38:21.541Z,20.47
2018-04-29T10:39:21.497Z,20.65
2018-04-29T10:41:14.442Z,20.81
2018-04-29T10:42:14.444Z,21.04
2018-04-29T10:43:14.456Z,21.20
2018-04-29T10:44:14.460Z,21.35
2018-04-29T10:45:14.478Z,21.71
2018-04-29T10:46:14.473Z,21.90
2018-04-29T10:47:14.487Z,21.85
2018-04-29T10:48:14.494Z,21.98
2018-04-29T10:49:14.498Z,22.07
2018-04-29T10:50:14.570Z,22.12
2018-04-29T10:51:14.519Z,22.12
2018-04-29T10:52:14.599Z,22.02
2018-04-29T10:53:14.546Z,21.75
2018-04-29T10:54:14.554Z,21.63
2018-04-29T10:55:14.561Z,21.36
2018-04-29T10:56:14.571Z,21.32
2018-04-29T10:57:14.587Z,21.27
2018-04-29T10:58:14.590Z,21.27
2018-04-29T10:59:14.606Z,21.20
2018-04-29T11:00:14.613Z,21.30
2018-04-29T11:01:14.624Z,21.57
2018-04-29T11:02:14.639Z,21.74
2018-04-29T11:03:14.640Z,21.94
2018-04-29T11:04:14.697Z,22.02
2018-04-29T11:05:14.661Z,22.10
2018-04-29T11:06:14.685Z,22.22
2018-04-29T11:07:14.690Z,22.16
2018-04-29T11:08:14.724Z,22.25
2018-04-29T11:09:14.712Z,22.09
2018-04-29T11:10:14.721Z,22.04
2018-04-29T11:11:14.734Z,21.98
2018-04-29T11:12:14.738Z,21.91
2018-04-29T11:13:14.752Z,22.20
2018-04-29T11:14:14.797Z,22.10
2018-04-29T11:15:14.780Z,22.09
2018-04-29T11:16:14.777Z,22.01
2018-04-29T11:17:14.798Z,21.95
2018-04-29T11:18:15.448Z,22.13
2018-04-29T11:19:14.819Z,22.06
2018-04-29T11:20:14.827Z,21.63
2018-04-29T11:21:14.834Z,21.50
2018-04-29T11:22:14.894Z,21.61
2018-04-29T11:23:14.868Z,21.59
2018-04-29T11:24:14.875Z,21.82
2018-04-29T11:25:15.012Z,22.09
2018-04-29T11:26:14.889Z,22.01
2018-04-29T11:27:14.909Z,22.10
2018-04-29T11:28:14.924Z,22.10
2018-04-29T11:29:14.923Z,22.22
2018-04-29T11:30:14.939Z,22.06
2018-04-29T11:31:14.961Z,22.07
2018-04-29T11:32:15.016Z,22.19
2018-04-29T11:33:14.972Z,22.20
2018-04-29T11:34:14.982Z,22.38
2018-04-29T11:35:14.995Z,22.43
2018-04-29T11:36:15.000Z,22.16
2018-04-29T11:37:15.024Z,22.19
2018-04-29T11:38:15.031Z,22.09
2018-04-29T11:39:15.103Z,22.04
2018-04-29T11:40:15.154Z,21.94
2018-04-29T11:41:15.056Z,21.88
2018-04-29T11:42:15.070Z,21.85
2018-04-29T11:43:15.094Z,21.82
2018-04-29T11:44:15.095Z,21.91
2018-04-29T11:45:15.103Z,22.09
2018-04-29T11:46:15.129Z,21.99
2018-04-29T11:47:15.955Z,21.99
2018-04-29T11:48:15.128Z,22.16
2018-04-29T11:49:15.188Z,22.34
2018-04-29T11:50:15.158Z,22.50
2018-04-29T11:51:15.164Z,22.54
2018-04-29T11:52:15.184Z,22.32
2018-04-29T11:53:15.192Z,22.31
2018-04-29T11:54:15.204Z,22.01
2018-04-29T11:55:15.223Z,22.14
2018-04-29T11:56:15.225Z,21.95
2018-04-29T11:57:15.229Z,22.02
2018-04-29T11:58:15.245Z,21.95
2018-04-29T11:59:15.239Z,21.97
2018-04-29T12:00:15.255Z,21.99
2018-04-29T12:01:15.264Z,22.10
2018-04-29T12:02:15.270Z,22.19
2018-04-29T12:03:15.305Z,22.29
2018-04-29T12:04:15.293Z,22.46
2018-04-29T12:05:15.320Z,22.47
2018-04-29T12:06:15.311Z,22.41
2018-04-29T12:07:15.326Z,22.41
2018-04-29T12:08:15.336Z,22.50
2018-04-29T12:10:08.318Z,22.22
2018-04-29T12:11:08.270Z,22.27
2018-04-29T12:13:01.251Z,22.35
2018-04-29T12:14:01.250Z,22.41
2018-04-29T12:15:56.647Z,22.44
2018-04-29T12:16:55.092Z,22.57
2018-04-29T12:18:48.117Z,22.92
2018-04-29T12:19:48.085Z,22.72
2018-04-29T12:21:41.020Z,22.57
2018-04-29T12:22:41.033Z,22.53
2018-04-29T12:24:34.018Z,22.89
2018-04-29T12:25:33.975Z,22.84
2018-04-29T12:27:26.966Z,22.69
2018-04-29T12:28:26.967Z,22.57
2018-04-29T12:30:19.921Z,22.69
2018-04-29T12:31:20.001Z,22.72
2018-04-29T12:33:12.853Z,22.93
2018-04-29T12:34:12.921Z,23.07
2018-04-29T12:35:12.865Z,23.14
2018-04-29T12:36:12.875Z,23.20
2018-04-29T12:37:12.881Z,23.29
2018-04-29T12:38:12.908Z,23.26
2018-04-29T12:39:12.904Z,23.35
2018-04-29T12:40:12.913Z,23.19
2018-04-29T12:41:12.937Z,23.19
2018-04-29T12:42:13.006Z,23.26
2018-04-29T12:43:12.981Z,23.01
2018-04-29T12:44:12.958Z,22.87
2018-04-29T12:45:13.018Z,23.02
2018-04-29T12:46:13.012Z,23.01
2018-04-29T12:47:13.009Z,23.14
2018-04-29T12:48:13.029Z,23.14
2018-04-29T12:49:13.024Z,22.96
2018-04-29T12:50:12.999Z,23.08
2018-04-29T12:51:13.040Z,23.11
2018-04-29T12:52:13.055Z,23.11
2018-04-29T12:53:13.031Z,23.17
2018-04-29T12:54:13.093Z,23.19
2018-04-29T12:55:13.074Z,23.26
2018-04-29T12:56:13.076Z,23.02
2018-04-29T12:57:13.087Z,23.02
2018-04-29T12:58:13.132Z,23.02
2018-04-29T12:59:13.106Z,23.05
2018-04-29T13:00:13.136Z,23.11
2018-04-29T13:01:13.117Z,23.07
2018-04-29T13:02:13.118Z,23.05
2018-04-29T13:03:13.138Z,23.11
2018-04-29T13:04:13.142Z,23.02
2018-04-29T13:05:13.149Z,23.01
2018-04-29T13:06:13.164Z,23.01
2018-04-29T13:07:13.168Z,23.22
2018-04-29T13:08:13.175Z,23.22
2018-04-29T13:09:13.197Z,23.19
2018-04-29T13:10:13.237Z,23.15
2018-04-29T13:12:06.218Z,23.14
2018-04-29T13:13:06.196Z,23.15
2018-04-29T13:14:59.146Z,23.01
2018-04-29T13:15:59.143Z,23.01
2018-04-29T13:17:52.148Z,23.04
2018-04-29T13:18:52.129Z,23.04
2018-04-29T13:20:45.055Z,22.90
2018-04-29T13:21:45.090Z,22.92
2018-04-29T13:23:38.078Z,22.99
2018-04-29T13:24:38.071Z,22.89
2018-04-29T13:26:31.050Z,22.97
2018-04-29T13:27:31.001Z,22.99
2018-04-29T13:29:23.951Z,23.12
2018-04-29T13:30:23.969Z,23.20
2018-04-29T13:32:17.471Z,23.12
2018-04-29T13:33:17.422Z,23.02
2018-04-29T13:35:10.450Z,22.96
2018-04-29T13:36:10.355Z,22.78
2018-04-29T13:38:03.322Z,22.65
2018-04-29T13:39:03.340Z,22.65
2018-04-29T13:40:56.328Z,22.92
2018-04-29T13:41:56.271Z,22.92
2018-04-29T13:43:49.254Z,22.96
2018-04-29T13:44:49.224Z,23.17
2018-04-29T13:45:49.332Z,23.24
2018-04-29T13:46:49.274Z,23.17
2018-04-29T13:47:49.272Z,23.11
2018-04-29T13:48:49.311Z,23.24
2018-04-29T13:49:49.801Z,23.02
2018-04-29T13:50:49.357Z,22.86
2018-04-29T13:51:49.321Z,22.90
2018-04-29T13:52:49.316Z,22.86
2018-04-29T13:53:49.323Z,22.71
2018-04-29T13:54:50.300Z,22.74